Whiteoak, MO (63880)

6:09 PM CDT on September 19, 2014 (GMT -0500)
KC0UFP WX | Change Station
CLOSE
Current Station
Personal Weather Station
Location: Kennett, MO
Elevation: 262 ft
Nearby Weather Stations

Elev 262 ft 36.21 °N, 90.07 °W | Updated 1 minute ago

Clear
Clear
88.7 °F
Feels Like 93 °F
N
0.0
Wind Variable Wind from ESE

Today
High -- | Low -- °F
--% Chance of Precip.
Yesterday
High -- | Low -- °F
Precip. -- in
6:46 AM 7:01 PM
Waning Crescent, 16% visible
Pressure 29.99 in
Visibility 10.0 miles
Clouds Clear
Heat Index 93 °F
Dew Point 69 °F
Humidity 53%
Rainfall 0.00 in
Snow Depth Not available.
UV 1 out of 12
Pollen 8.30 out of 12
Air Quality Not available.
Flu Activity Not available.
METAR KHKA 192253Z AUTO 13003KT 10SM CLR 28/19 A3000 RMK AO2 SLP155 T02830194

More Conditions Fewer Conditions

Pressure 29.99 in
Visibility 10.0 miles
Clouds Clear
Heat Index 93 °F
Dew Point 69 °F
Humidity 53%
Rainfall 0.00 in
Snow Depth Not available.
UV 1 out of 12
Pollen 8.30 out of 12
Air Quality Not available.
Flu Activity Not available.
METAR KHKA 192253Z AUTO 13003KT 10SM CLR 28/19 A3000 RMK AO2 SLP155 T02830194

More Conditions Fewer Conditions

10-Day Weather Forecast

Almanac

Astronomy

Sep. 19, 2014 Rise Set
Actual Time 6:46 AM CDT 7:01 PM CDT
Civil Twilight 6:20 AM CDT 7:27 PM CDT
Nautical Twilight 5:50 AM CDT 7:57 PM CDT
Astronomical Twilight 5:19 AM CDT 8:28 PM CDT
Moon 2:37 AM CDT 4:25 PM CDT
Length of Visible Light 13h 07m
Length of Day
12h 15m
Tomorrow will be 2m 16s shorter.
Waning Crescent, 16% of the Moon is Illuminated
Today
Waning Crescent
Sep 24
New
Oct 1
First Quarter
Oct 8
Full
Oct 15
Last Quarter

Today's Extremes

State Highs State Lows

Community

WunderPhotos

Upload Photos

1,754,724 photos uploaded!

WunderBlogs® & News

By Dr. Jeff Masters
Director of Meteorology, Weather Underground
By Kari Strenfel
Meteorologist, Weather Underground
By Christopher C. Burt
Weather Historian, Weather Underground
September 19, 2014
September 19, 2014
September 19, 2014

Nearby

Snow Depth

Station Depth Elevation
No new snow has been reported.

Earthquake Activity

City Distance Mag. Time & Date
No recent earthquake activity has been reported nearby.
Minimum magnitude displayed is 2.5.

Coastal Water Temperatures

Place Temperature
No Stations Reporting

Nearby Weather Stations